Time;durP1;ratioP1;P1;durP2;ratioP2;P2;SDS_P1;SDS_P2;PMS_P1;PMS_P2;Temp;Humidity;BMP_temperature;BMP_pressure;BME280_temperature;BME280_humidity;BME280_pressure;Samples;Min_cycle;Max_cycle;Signal;HPM_P1;HPM_P2
2022/02/26 00:01:01;;;;;;;1.45;0.85;;;20.60;37.10;;;;;;5096525;28;20051;-74
2022/02/26 00:03:27;;;;;;;1.10;0.80;;;20.60;37.10;;;;;;5114932;28;20448;-74
2022/02/26 00:05:52;;;;;;;1.15;0.80;;;20.60;37.10;;;;;;5114860;28;20059;-74
2022/02/26 00:08:18;;;;;;;1.67;0.90;;;20.60;37.10;;;;;;5096374;28;20051;-74
2022/02/26 00:10:45;;;;;;;1.77;1.10;;;20.60;37.10;;;;;;5114794;28;20069;-74
2022/02/26 00:13:10;;;;;;;1.67;1.00;;;20.60;37.10;;;;;;5114645;28;20039;-74
2022/02/26 00:15:36;;;;;;;1.13;0.60;;;20.60;37.10;;;;;;5114477;28;20120;-74
2022/02/26 00:18:03;;;;;;;1.70;1.00;;;20.60;37.10;;;;;;5114548;28;20070;-74
2022/02/26 00:20:29;;;;;;;1.27;0.90;;;20.60;37.10;;;;;;5114486;28;20482;-74
2022/02/26 00:22:55;;;;;;;1.55;0.80;;;20.60;37.10;;;;;;5113355;28;20056;-74
2022/02/26 00:25:20;;;;;;;2.10;0.85;;;20.60;37.10;;;;;;5114831;28;20051;-74
2022/02/26 00:27:46;;;;;;;1.10;0.77;;;20.60;37.10;;;;;;5096183;28;20139;-74
2022/02/26 00:30:11;;;;;;;1.27;0.80;;;20.60;37.20;;;;;;5114357;28;20051;-74
2022/02/26 00:32:37;;;;;;;1.63;0.90;;;20.60;37.10;;;;;;5114352;28;20425;-74
2022/02/26 00:35:03;;;;;;;1.65;1.00;;;20.60;37.20;;;;;;5114378;28;20070;-74
2022/02/26 00:37:29;;;;;;;1.95;0.90;;;20.60;37.10;;;;;;5114145;28;20105;-74
2022/02/26 00:39:56;;;;;;;1.55;0.90;;;20.60;37.10;;;;;;5114276;28;20454;-74
2022/02/26 00:42:21;;;;;;;2.80;0.98;;;20.60;37.10;;;;;;5114169;28;20044;-74
2022/02/26 00:44:47;;;;;;;1.85;0.90;;;20.60;37.10;;;;;;5113507;28;20079;-74
2022/02/26 00:47:12;;;;;;;1.10;0.85;;;20.60;37.20;;;;;;5114088;28;20051;-74
2022/02/26 00:49:47;;;;;;;1.10;0.70;;;20.60;37.10;;;;;;5113989;28;20048;-74
2022/02/26 00:52:14;;;;;;;2.03;0.80;;;20.60;37.20;;;;;;5114111;28;20135;-74
2022/02/26 00:54:39;;;;;;;2.83;1.33;;;20.60;37.20;;;;;;5113972;28;20046;-74
2022/02/26 00:57:05;;;;;;;1.08;0.93;;;20.60;37.10;;;;;;5114045;28;20055;-74
2022/02/26 00:59:31;;;;;;;0.82;0.75;;;20.60;37.20;;;;;;5113773;28;20499;-74
2022/02/26 01:01:56;;;;;;;1.20;0.80;;;20.60;37.20;;;;;;5113955;28;20047;-74
2022/02/26 01:04:22;;;;;;;1.75;0.90;;;20.60;37.20;;;;;;5113919;28;20052;-74
2022/02/26 01:06:48;;;;;;;1.20;0.80;;;20.60;37.20;;;;;;5114197;28;20054;-74
2022/02/26 01:09:14;;;;;;;1.63;0.93;;;20.60;37.20;;;;;;5113804;28;20043;-74
2022/02/26 01:11:40;;;;;;;0.95;0.85;;;20.60;37.20;;;;;;5113638;28;20479;-74
2022/02/26 01:14:06;;;;;;;0.95;0.70;;;20.60;37.20;;;;;;5113772;28;20057;-74
2022/02/26 01:16:34;;;;;;;2.80;1.00;;;20.60;37.20;;;;;;5114007;28;20440;-74
2022/02/26 01:19:02;;;;;;;1.90;0.90;;;20.60;37.20;;;;;;5095453;28;20059;-74
2022/02/26 01:21:28;;;;;;;0.98;0.70;;;20.60;37.20;;;;;;5113706;28;20054;-74
2022/02/26 01:23:54;;;;;;;1.98;0.77;;;20.60;37.20;;;;;;5113325;28;20063;-74
2022/02/26 01:26:22;;;;;;;1.60;0.93;;;20.60;37.10;;;;;;5093830;28;20052;-74
2022/02/26 01:28:48;;;;;;;1.63;0.85;;;20.60;37.20;;;;;;5093482;28;20044;-74
2022/02/26 01:31:14;;;;;;;1.98;0.80;;;20.60;37.20;;;;;;5113378;28;20142;-74
2022/02/26 01:33:40;;;;;;;1.10;0.75;;;20.60;37.20;;;;;;5111202;28;20059;-74
2022/02/26 01:36:06;;;;;;;1.55;0.90;;;20.60;37.20;;;;;;5093666;28;20062;-74
2022/02/26 01:38:32;;;;;;;2.67;0.70;;;20.60;37.20;;;;;;5113246;28;20051;-74
2022/02/26 01:40:59;;;;;;;1.27;0.90;;;20.60;37.20;;;;;;5113427;28;20067;-74
2022/02/26 01:43:25;;;;;;;1.75;1.00;;;20.60;37.20;;;;;;5113372;28;20077;-74
2022/02/26 01:45:52;;;;;;;1.80;0.73;;;20.60;37.20;;;;;;5113295;28;20051;-74
2022/02/26 01:48:17;;;;;;;1.55;0.82;;;20.60;37.20;;;;;;5094882;28;20444;-73
2022/02/26 01:50:43;;;;;;;0.93;0.70;;;20.60;37.20;;;;;;5113546;28;20134;-74
2022/02/26 01:53:10;;;;;;;2.13;1.08;;;20.60;37.20;;;;;;5113086;28;20044;-74
2022/02/26 01:55:36;;;;;;;1.00;0.77;;;20.60;37.20;;;;;;5113137;28;20058;-74
2022/02/26 01:58:02;;;;;;;1.25;0.75;;;20.60;37.20;;;;;;5094733;28;20066;-74
2022/02/26 02:00:28;;;;;;;1.58;0.90;;;20.60;37.20;;;;;;5113129;28;20407;-74
2022/02/26 02:02:56;;;;;;;1.92;0.90;;;20.60;37.20;;;;;;5113111;28;20047;-74
2022/02/26 02:05:26;;;;;;;1.65;0.70;;;20.60;37.20;;;;;;5113337;28;20611;-74
2022/02/26 02:07:52;;;;;;;1.50;0.90;;;20.50;37.20;;;;;;5112840;28;20059;-74
2022/02/26 02:10:18;;;;;;;1.48;0.82;;;20.60;37.20;;;;;;5113254;28;20926;-74
2022/02/26 02:12:44;;;;;;;2.95;1.17;;;20.50;37.20;;;;;;5112769;28;20056;-74
2022/02/26 02:15:09;;;;;;;2.65;1.20;;;20.60;37.20;;;;;;5113249;28;20062;-74
2022/02/26 02:17:35;;;;;;;1.52;0.90;;;20.60;37.20;;;;;;5113181;28;20054;-74
2022/02/26 02:20:01;;;;;;;1.73;0.70;;;20.60;37.20;;;;;;5112755;28;20469;-74
2022/02/26 02:22:27;;;;;;;1.60;0.80;;;20.60;37.20;;;;;;5112879;28;20126;-74
2022/02/26 02:24:52;;;;;;;2.67;0.90;;;20.50;37.20;;;;;;5094394;28;20059;-74
2022/02/26 02:27:18;;;;;;;0.68;0.60;;;20.50;37.20;;;;;;5113091;28;20470;-74
2022/02/26 02:29:44;;;;;;;1.65;0.90;;;20.50;37.20;;;;;;5112577;28;20139;-74
2022/02/26 02:32:10;;;;;;;1.73;1.00;;;20.50;37.20;;;;;;5112572;28;20167;-74
2022/02/26 02:34:36;;;;;;;1.58;0.80;;;20.50;37.20;;;;;;5094424;28;20080;-74
2022/02/26 02:37:02;;;;;;;1.17;0.80;;;20.50;37.20;;;;;;5112532;28;20063;-74
2022/02/26 02:39:27;;;;;;;1.42;0.88;;;20.50;37.20;;;;;;5112514;28;20059;-74
2022/02/26 02:41:53;;;;;;;1.30;0.73;;;20.50;37.20;;;;;;5112554;28;20093;-74
2022/02/26 02:44:20;;;;;;;0.88;0.70;;;20.50;37.20;;;;;;5112575;28;20047;-74
2022/02/26 02:46:45;;;;;;;2.78;1.10;;;20.50;37.20;;;;;;5112590;28;20100;-74
2022/02/26 02:49:11;;;;;;;2.30;0.80;;;20.50;37.20;;;;;;5111047;28;20052;-75
2022/02/26 02:51:37;;;;;;;0.95;0.82;;;20.50;37.20;;;;;;5112707;28;20059;-74
2022/02/26 02:54:03;;;;;;;1.40;0.85;;;20.50;37.20;;;;;;5094080;28;20043;-74
2022/02/26 02:56:29;;;;;;;2.58;1.10;;;20.60;37.20;;;;;;5112456;28;20139;-74
2022/02/26 02:58:54;;;;;;;1.58;0.90;;;20.50;37.20;;;;;;5112206;28;20063;-74
2022/02/26 03:01:21;;;;;;;2.20;1.02;;;20.50;37.20;;;;;;5112218;28;20052;-74
2022/02/26 03:03:47;;;;;;;1.45;0.90;;;20.50;37.20;;;;;;5112189;28;20062;-74
2022/02/26 03:06:12;;;;;;;0.90;0.80;;;20.50;37.20;;;;;;5112608;28;20044;-74
2022/02/26 03:08:38;;;;;;;1.92;0.93;;;20.50;37.30;;;;;;5115721;28;20051;-74
2022/02/26 03:11:04;;;;;;;0.82;0.73;;;20.50;37.20;;;;;;5115823;28;20110;-74
2022/02/26 03:13:29;;;;;;;1.58;0.90;;;20.50;37.20;;;;;;5115568;28;20060;-74
2022/02/26 03:15:56;;;;;;;3.03;1.10;;;20.50;37.20;;;;;;5116294;28;20096;-74
2022/02/26 03:18:24;;;;;;;1.65;0.80;;;20.50;37.20;;;;;;5115338;28;20112;-74
2022/02/26 03:20:51;;;;;;;1.65;0.82;;;20.50;37.20;;;;;;5115358;28;20093;-74
2022/02/26 03:23:17;;;;;;;1.17;1.00;;;20.50;37.30;;;;;;5114494;28;20051;-74
2022/02/26 03:25:44;;;;;;;1.73;1.00;;;20.50;37.30;;;;;;5115454;28;20052;-74
2022/02/26 03:28:10;;;;;;;1.00;0.82;;;20.50;37.20;;;;;;5115362;28;20571;-74
2022/02/26 03:30:36;;;;;;;1.63;0.90;;;20.50;37.20;;;;;;5096978;28;20056;-74
2022/02/26 03:33:02;;;;;;;1.30;0.88;;;20.50;37.20;;;;;;5115343;28;20050;-74
2022/02/26 03:35:28;;;;;;;1.15;0.80;;;20.50;37.20;;;;;;5115400;28;20040;-74
2022/02/26 03:37:54;;;;;;;1.30;0.80;;;20.50;37.80;;;;;;5095407;28;20055;-74
2022/02/26 03:40:21;;;;;;;0.80;0.80;;;20.50;37.20;;;;;;5115182;28;20089;-74
2022/02/26 03:42:48;;;;;;;1.33;1.10;;;20.50;37.20;;;;;;5115251;28;20054;-74
2022/02/26 03:45:14;;;;;;;1.20;0.95;;;20.60;37.20;;;;;;5115230;28;20051;-74
2022/02/26 03:47:41;;;;;;;0.70;0.70;;;20.50;37.20;;;;;;5115299;28;20543;-74
2022/02/26 03:50:08;;;;;;;1.30;0.90;;;20.50;37.20;;;;;;5115180;28;20510;-74
2022/02/26 03:52:34;;;;;;;2.35;0.88;;;20.50;37.20;;;;;;5096643;28;20043;-74
2022/02/26 03:55:02;;;;;;;1.25;0.93;;;20.60;37.20;;;;;;5115092;28;20058;-74
2022/02/26 03:57:32;;;;;;;1.30;0.80;;;20.50;37.20;;;;;;5115088;28;20055;-74
2022/02/26 03:59:58;;;;;;;1.10;0.88;;;20.50;37.20;;;;;;5114825;28;20100;-74
2022/02/26 04:02:24;;;;;;;1.98;1.08;;;20.50;37.20;;;;;;5096626;28;20475;-74
2022/02/26 04:04:50;;;;;;;1.10;0.75;;;20.60;37.20;;;;;;5115076;28;20043;-74
2022/02/26 04:07:15;;;;;;;2.58;0.93;;;20.60;37.20;;;;;;5113827;28;20062;-74
2022/02/26 04:09:41;;;;;;;1.55;0.93;;;20.60;37.20;;;;;;5114766;28;20051;-74
2022/02/26 04:12:07;;;;;;;2.17;1.10;;;20.60;37.20;;;;;;5114722;28;20063;-74
2022/02/26 04:14:33;;;;;;;2.95;1.20;;;20.60;37.20;;;;;;5096298;28;20047;-74
2022/02/26 04:16:58;;;;;;;1.20;1.00;;;20.60;37.20;;;;;;5114542;28;20062;-74
2022/02/26 04:19:24;;;;;;;2.03;0.80;;;20.60;37.20;;;;;;5113438;28;20079;-74
2022/02/26 04:21:50;;;;;;;1.35;0.95;;;20.60;37.20;;;;;;5114564;28;20047;-74
2022/02/26 04:24:15;;;;;;;1.05;0.82;;;20.60;37.20;;;;;;5114640;28;20055;-74
2022/02/26 04:26:41;;;;;;;1.08;0.85;;;20.60;37.20;;;;;;5114575;28;20414;-74
2022/02/26 04:29:07;;;;;;;1.80;0.85;;;20.60;37.20;;;;;;5078457;28;20052;-74
2022/02/26 04:31:35;;;;;;;1.83;1.10;;;20.60;37.20;;;;;;5114418;28;20496;-74
2022/02/26 04:34:02;;;;;;;1.65;0.80;;;20.60;37.10;;;;;;5114319;28;20056;-74
2022/02/26 04:36:28;;;;;;;2.25;1.08;;;20.60;37.10;;;;;;5096075;28;20457;-74
2022/02/26 04:38:53;;;;;;;1.30;0.90;;;20.60;37.10;;;;;;5114064;28;20059;-74
2022/02/26 04:41:19;;;;;;;0.90;0.60;;;20.60;37.10;;;;;;5111531;28;20055;-74
2022/02/26 04:43:45;;;;;;;1.38;1.08;;;20.60;37.10;;;;;;5095608;28;20138;-74
2022/02/26 04:46:10;;;;;;;2.33;0.98;;;20.70;37.10;;;;;;5095193;28;20051;-74
2022/02/26 04:48:36;;;;;;;1.75;0.98;;;20.70;37.10;;;;;;5094033;28;20498;-74
2022/02/26 04:51:03;;;;;;;1.60;0.90;;;20.70;37.00;;;;;;5095895;28;20051;-74
2022/02/26 04:53:28;;;;;;;1.05;0.70;;;20.70;37.10;;;;;;5114113;28;20047;-74
2022/02/26 04:55:55;;;;;;;1.17;0.75;;;20.70;37.00;;;;;;5114144;28;20142;-74
2022/02/26 04:58:20;;;;;;;2.50;0.98;;;20.70;37.00;;;;;;5112541;28;20562;-74
2022/02/26 05:00:46;;;;;;;0.90;0.70;;;20.70;37.00;;;;;;5113881;28;20124;-74
2022/02/26 05:03:12;;;;;;;1.52;0.90;;;20.70;37.00;;;;;;5113974;28;20039;-74
2022/02/26 05:05:37;;;;;;;2.20;1.20;;;20.80;37.00;;;;;;5095584;28;20055;-74
2022/02/26 05:08:03;;;;;;;1.17;0.88;;;20.70;37.00;;;;;;5113708;28;20055;-74
2022/02/26 05:10:30;;;;;;;1.90;0.77;;;20.70;37.00;;;;;;5113996;28;20051;-74
2022/02/26 05:12:56;;;;;;;1.67;0.95;;;20.70;37.00;;;;;;5113785;28;20120;-74
2022/02/26 05:15:22;;;;;;;1.52;0.95;;;20.80;37.00;;;;;;5095431;28;20483;-74
2022/02/26 05:17:47;;;;;;;1.05;0.85;;;20.80;37.10;;;;;;5113774;28;20058;-74
2022/02/26 05:20:14;;;;;;;1.48;1.00;;;20.80;37.00;;;;;;5113606;28;20085;-74
2022/02/26 05:22:41;;;;;;;1.25;0.75;;;20.80;37.00;;;;;;5095391;28;20136;-74
2022/02/26 05:25:08;;;;;;;3.10;1.05;;;20.80;37.00;;;;;;5112228;28;20376;-74
2022/02/26 05:27:33;;;;;;;1.35;0.90;;;20.80;37.10;;;;;;5113480;28;20487;-74
2022/02/26 05:29:59;;;;;;;1.25;0.85;;;20.80;37.10;;;;;;5113120;28;20061;-74
2022/02/26 05:32:25;;;;;;;0.95;0.77;;;20.80;37.00;;;;;;5113777;28;20102;-74
2022/02/26 05:34:51;;;;;;;1.23;0.82;;;20.80;37.00;;;;;;5112390;28;20066;-74
2022/02/26 05:37:18;;;;;;;0.93;0.60;;;20.80;37.10;;;;;;5113516;28;20150;-74
2022/02/26 05:39:43;;;;;;;2.05;1.00;;;20.80;37.10;;;;;;5113294;28;20053;-74
2022/02/26 05:42:09;;;;;;;1.33;0.95;;;20.80;37.10;;;;;;5113291;28;20130;-74
2022/02/26 05:44:34;;;;;;;1.15;0.85;;;20.80;37.00;;;;;;5112044;28;20086;-74
2022/02/26 05:47:00;;;;;;;1.05;0.77;;;20.80;37.00;;;;;;5113218;28;20055;-74
2022/02/26 05:49:26;;;;;;;1.05;0.90;;;20.80;37.00;;;;;;5113173;28;20047;-74
2022/02/26 05:51:51;;;;;;;1.92;0.93;;;20.70;37.00;;;;;;5094836;28;20062;-74
2022/02/26 05:54:17;;;;;;;1.55;0.90;;;20.80;37.00;;;;;;5113185;28;20132;-74
2022/02/26 05:56:43;;;;;;;2.20;1.13;;;20.70;37.00;;;;;;5113137;28;20414;-74
2022/02/26 05:59:08;;;;;;;1.38;0.80;;;20.80;37.00;;;;;;5113080;28;20051;-74
2022/02/26 06:01:34;;;;;;;1.95;1.02;;;20.80;37.00;;;;;;5112940;28;20487;-74
2022/02/26 06:04:00;;;;;;;1.25;0.80;;;20.80;37.00;;;;;;5093060;28;20052;-74
2022/02/26 06:06:26;;;;;;;2.40;0.90;;;20.80;37.00;;;;;;5113113;28;20410;-74
2022/02/26 06:08:51;;;;;;;1.83;1.10;;;20.80;37.00;;;;;;5110501;28;20513;-74
2022/02/26 06:11:17;;;;;;;1.80;0.90;;;20.80;37.00;;;;;;5113164;28;20479;-74
2022/02/26 06:13:42;;;;;;;1.35;0.60;;;20.80;37.00;;;;;;5112674;28;20381;-74
2022/02/26 06:16:09;;;;;;;1.05;0.77;;;20.80;37.00;;;;;;5113355;28;20055;-74
2022/02/26 06:18:34;;;;;;;1.42;0.75;;;20.80;37.00;;;;;;5108721;28;20093;-74
2022/02/26 06:21:00;;;;;;;1.65;0.80;;;20.80;37.00;;;;;;5112767;28;20064;-74
2022/02/26 06:23:25;;;;;;;1.48;0.90;;;20.80;37.00;;;;;;5111533;28;20054;-74
2022/02/26 06:25:51;;;;;;;1.98;1.05;;;20.80;37.00;;;;;;5112920;28;20450;-74
2022/02/26 06:28:16;;;;;;;2.13;1.25;;;20.80;36.90;;;;;;5112664;28;20508;-74
2022/02/26 06:30:42;;;;;;;1.70;0.90;;;20.80;36.90;;;;;;5112525;28;20135;-74
2022/02/26 06:33:12;;;;;;;1.77;1.10;;;20.90;36.90;;;;;;5112672;28;20083;-74
2022/02/26 06:35:38;;;;;;;2.30;1.05;;;20.90;36.80;;;;;;5094473;28;20126;-74
2022/02/26 06:38:03;;;;;;;1.77;0.90;;;20.90;36.70;;;;;;5094099;28;20090;-74
2022/02/26 06:40:29;;;;;;;1.10;0.75;;;21.00;36.70;;;;;;5112921;28;20054;-74
2022/02/26 06:42:54;;;;;;;1.00;0.75;;;21.00;36.60;;;;;;5097266;28;20051;-74
2022/02/26 06:45:20;;;;;;;3.10;1.17;;;21.10;36.60;;;;;;5116755;28;20420;-74
2022/02/26 06:47:45;;;;;;;1.92;0.98;;;21.10;36.50;;;;;;5116060;28;20475;-74
2022/02/26 06:50:11;;;;;;;1.65;1.08;;;21.20;36.40;;;;;;5116059;28;20430;-74
2022/02/26 06:52:37;;;;;;;0.95;0.77;;;21.20;36.40;;;;;;5116009;28;20052;-74
2022/02/26 06:55:03;;;;;;;1.73;0.90;;;21.20;36.30;;;;;;5116043;28;20139;-74
2022/02/26 06:57:28;;;;;;;1.83;0.75;;;21.30;36.20;;;;;;5097419;28;20386;-74
2022/02/26 06:59:54;;;;;;;1.55;0.82;;;21.40;36.10;;;;;;5115945;28;20055;-74
2022/02/26 07:02:20;;;;;;;1.20;0.90;;;21.40;36.00;;;;;;5116232;28;20051;-74
2022/02/26 07:04:45;;;;;;;1.40;1.10;;;21.50;36.00;;;;;;5115723;28;20105;-74
2022/02/26 07:07:11;;;;;;;1.75;1.08;;;21.50;35.90;;;;;;5115637;28;20127;-74
2022/02/26 07:09:37;;;;;;;1.10;0.80;;;21.60;35.80;;;;;;5097333;28;20201;-74
2022/02/26 07:12:04;;;;;;;1.88;0.90;;;21.60;35.70;;;;;;5115583;28;20469;-74
2022/02/26 07:14:29;;;;;;;1.08;0.60;;;21.70;35.60;;;;;;5115507;28;20506;-74
2022/02/26 07:16:55;;;;;;;2.35;1.30;;;21.80;35.50;;;;;;5116220;28;20052;-74
2022/02/26 07:19:20;;;;;;;1.55;0.88;;;21.80;35.40;;;;;;5115591;28;20066;-74
2022/02/26 07:21:46;;;;;;;1.65;1.00;;;21.90;35.40;;;;;;5115495;28;20051;-74
2022/02/26 07:24:12;;;;;;;2.15;1.00;;;21.90;35.30;;;;;;5097205;28;20048;-72
2022/02/26 07:26:38;;;;;;;1.48;0.82;;;21.90;35.20;;;;;;5115824;28;20047;-72
2022/02/26 07:29:05;;;;;;;2.65;1.23;;;22.00;35.20;;;;;;5115439;28;20052;-72
2022/02/26 07:31:33;;;;;;;2.25;1.13;;;22.00;35.20;;;;;;5115408;28;20056;-72
2022/02/26 07:33:59;;;;;;;1.05;0.80;;;22.00;35.20;;;;;;5096912;28;20052;-72
2022/02/26 07:36:24;;;;;;;1.10;0.70;;;22.00;35.10;;;;;;5115078;28;20535;-72
2022/02/26 07:38:50;;;;;;;1.60;0.90;;;22.00;35.00;;;;;;5112598;28;20056;-72
2022/02/26 07:41:16;;;;;;;1.58;0.70;;;22.10;35.00;;;;;;5111983;28;20058;-72
2022/02/26 07:43:42;;;;;;;1.50;1.00;;;22.10;35.00;;;;;;5096257;28;20055;-72
2022/02/26 07:46:07;;;;;;;1.13;0.82;;;22.10;35.00;;;;;;5095687;28;20054;-72
2022/02/26 07:48:34;;;;;;;2.17;0.98;;;22.10;35.00;;;;;;5094618;28;20075;-72
2022/02/26 07:51:00;;;;;;;2.00;1.08;;;22.10;34.90;;;;;;5115180;28;20039;-72
2022/02/26 07:53:26;;;;;;;1.20;0.90;;;22.10;35.00;;;;;;5114825;28;20054;-72
2022/02/26 07:55:52;;;;;;;1.35;0.90;;;22.10;35.00;;;;;;5113799;28;20044;-72
2022/02/26 07:58:17;;;;;;;2.40;1.17;;;22.10;35.00;;;;;;5114709;28;20048;-72
2022/02/26 08:00:43;;;;;;;0.88;0.70;;;22.00;35.00;;;;;;5115302;28;20498;-72
2022/02/26 08:03:08;;;;;;;1.25;0.90;;;22.10;35.10;;;;;;5114955;28;20558;-72
2022/02/26 08:05:34;;;;;;;1.35;0.90;;;22.10;35.10;;;;;;5115250;28;20052;-74
2022/02/26 08:08:01;;;;;;;1.73;0.80;;;22.00;35.00;;;;;;5114788;28;20051;-73
2022/02/26 08:10:27;;;;;;;2.03;1.00;;;22.00;35.10;;;;;;5114846;28;20406;-74
2022/02/26 08:12:55;;;;;;;1.48;1.17;;;22.00;35.10;;;;;;5114713;28;20052;-74
2022/02/26 08:15:22;;;;;;;3.15;1.10;;;21.90;35.20;;;;;;5114756;28;20491;-74
2022/02/26 08:17:49;;;;;;;1.45;0.90;;;21.90;35.20;;;;;;5114930;28;20062;-72
2022/02/26 08:20:17;;;;;;;1.40;0.70;;;21.90;35.30;;;;;;5114479;28;20058;-72
2022/02/26 08:22:43;;;;;;;1.70;0.90;;;21.90;35.30;;;;;;5114660;28;20150;-72
2022/02/26 08:25:10;;;;;;;2.22;1.02;;;21.90;35.30;;;;;;5096285;28;20134;-72
2022/02/26 08:27:36;;;;;;;2.10;0.90;;;21.80;35.30;;;;;;5114301;28;20138;-72
2022/02/26 08:30:04;;;;;;;1.88;0.70;;;21.80;35.40;;;;;;5114528;28;20093;-72
2022/02/26 08:32:29;;;;;;;3.00;1.08;;;21.80;35.50;;;;;;5114422;28;20071;-72
2022/02/26 08:34:55;;;;;;;1.00;0.80;;;21.70;35.50;;;;;;5114513;28;20086;-73
2022/02/26 08:37:20;;;;;;;1.63;1.02;;;21.70;35.50;;;;;;5114097;28;20047;-74
2022/02/26 08:39:46;;;;;;;1.83;1.00;;;21.60;35.60;;;;;;5114956;28;20043;-74
2022/02/26 08:42:12;;;;;;;1.33;0.70;;;21.60;35.70;;;;;;5114342;28;20048;-73
2022/02/26 08:44:38;;;;;;;2.45;0.93;;;21.60;35.70;;;;;;5095947;28;20097;-74
2022/02/26 08:47:05;;;;;;;1.95;0.98;;;21.60;35.80;;;;;;5096359;28;20085;-74
2022/02/26 08:49:30;;;;;;;2.00;1.17;;;21.50;35.80;;;;;;5094606;28;20056;-74
2022/02/26 08:51:56;;;;;;;1.88;1.13;;;21.50;35.80;;;;;;5114076;28;20047;-74
2022/02/26 08:54:22;;;;;;;1.55;0.77;;;21.50;35.90;;;;;;5114027;28;20491;-72
2022/02/26 08:56:48;;;;;;;1.75;1.02;;;21.50;35.90;;;;;;5113883;28;20061;-72
2022/02/26 08:59:13;;;;;;;1.58;0.88;;;21.40;35.90;;;;;;5114071;28;20048;-72
2022/02/26 09:01:40;;;;;;;1.85;0.80;;;21.40;35.90;;;;;;5114093;28;20066;-72
2022/02/26 09:04:06;;;;;;;2.25;0.90;;;21.40;36.00;;;;;;5113245;28;20047;-72
2022/02/26 09:06:33;;;;;;;2.58;1.00;;;21.40;36.00;;;;;;5113877;28;20092;-72
2022/02/26 09:09:00;;;;;;;1.67;1.00;;;21.30;36.00;;;;;;5113858;28;20052;-72
2022/02/26 09:11:26;;;;;;;2.40;1.13;;;21.30;36.10;;;;;;5113760;28;20089;-72
2022/02/26 09:13:51;;;;;;;2.13;1.20;;;21.30;36.10;;;;;;5113469;28;20044;-72
2022/02/26 09:16:17;;;;;;;1.80;0.90;;;21.30;36.20;;;;;;5113598;28;20056;-72
2022/02/26 09:18:44;;;;;;;1.70;0.98;;;21.30;36.20;;;;;;5113632;28;20055;-72
2022/02/26 09:21:10;;;;;;;1.38;0.70;;;21.30;36.20;;;;;;5113264;28;20069;-72
2022/02/26 09:23:37;;;;;;;1.13;0.85;;;21.30;36.30;;;;;;5113634;28;20130;-72
2022/02/26 09:26:04;;;;;;;4.03;1.00;;;21.20;36.30;;;;;;5113524;28;20051;-72
2022/02/26 09:28:32;;;;;;;1.75;0.85;;;21.20;36.30;;;;;;5113545;28;20044;-72
2022/02/26 09:30:58;;;;;;;2.35;1.02;;;21.20;36.30;;;;;;5113179;28;20052;-71
2022/02/26 09:33:24;;;;;;;1.10;1.00;;;21.20;36.30;;;;;;5112391;28;20501;-72
2022/02/26 09:35:49;;;;;;;1.40;0.80;;;21.20;36.30;;;;;;5113740;28;20122;-74
2022/02/26 09:38:15;;;;;;;1.70;0.85;;;21.20;36.30;;;;;;5113461;28;20060;-74
2022/02/26 09:40:40;;;;;;;1.67;0.95;;;21.20;36.30;;;;;;5093413;28;20052;-74
2022/02/26 09:43:07;;;;;;;1.55;1.08;;;21.20;36.30;;;;;;5113392;28;20047;-74
2022/02/26 09:45:32;;;;;;;1.80;0.85;;;21.20;36.30;;;;;;5113350;28;20098;-74
2022/02/26 09:47:58;;;;;;;1.15;0.80;;;21.20;36.30;;;;;;5113285;28;20055;-74
2022/02/26 09:50:24;;;;;;;1.50;0.85;;;21.20;36.30;;;;;;5113267;28;20492;-74
2022/02/26 09:52:50;;;;;;;1.27;0.85;;;21.20;36.30;;;;;;5113077;28;20043;-74
2022/02/26 09:55:16;;;;;;;1.48;1.00;;;21.20;36.30;;;;;;5113217;28;20056;-74
2022/02/26 09:57:42;;;;;;;1.95;1.05;;;21.20;36.40;;;;;;5113165;28;20096;-74
2022/02/26 10:00:09;;;;;;;1.63;0.90;;;21.20;36.30;;;;;;5113133;28;20403;-74
2022/02/26 10:02:38;;;;;;;1.25;0.90;;;21.20;36.40;;;;;;5113434;28;20044;-74
2022/02/26 10:05:07;;;;;;;1.20;0.93;;;21.20;36.30;;;;;;5095139;28;20059;-74
2022/02/26 10:07:34;;;;;;;2.75;1.10;;;21.20;36.30;;;;;;5112909;28;20516;-74
2022/02/26 10:10:05;;;;;;;1.67;0.90;;;21.20;36.30;;;;;;5112966;28;20380;-74
2022/02/26 10:12:36;;;;;;;;;;;21.20;36.30;;;;;;5113245;28;20054;-74
2022/02/26 10:15:06;;;;;;;1.73;0.88;;;21.20;36.30;;;;;;5113071;28;19965;-74
2022/02/26 10:17:36;;;;;;;2.25;0.77;;;21.20;36.30;;;;;;5115199;28;20039;-74
2022/02/26 10:20:12;;;;;;;2.50;0.90;;;21.20;36.30;;;;;;5116468;28;20476;-74
2022/02/26 10:22:51;;;;;;;2.00;0.80;;;21.20;36.30;;;;;;5116859;28;20091;-74
2022/02/26 10:25:24;;;;;;;2.15;1.13;;;21.30;36.30;;;;;;5115235;28;20055;-74
2022/02/26 10:27:54;;;;;;;1.50;0.80;;;21.20;36.30;;;;;;5116274;28;20056;-74
2022/02/26 10:30:28;;;;;;;1.98;1.13;;;21.20;36.30;;;;;;5116310;28;20134;-74
2022/02/26 10:33:17;;;;;;;1.85;1.15;;;21.20;36.30;;;;;;5116360;28;20047;-74
2022/02/26 10:35:48;;;;;;;1.50;0.82;;;21.20;36.30;;;;;;5116368;28;20052;-74
2022/02/26 10:38:18;;;;;;;1.23;0.82;;;21.20;36.30;;;;;;5095941;28;20047;-74
2022/02/26 10:40:55;;;;;;;1.70;0.90;;;21.20;36.30;;;;;;5116286;28;20134;-74
2022/02/26 10:43:41;;;;;;;2.22;0.80;;;21.20;36.30;;;;;;5116147;28;20054;-74
2022/02/26 10:46:20;;;;;;;1.52;1.00;;;21.20;36.30;;;;;;5115977;28;20054;-74
2022/02/26 10:48:46;;;;;;;1.52;0.90;;;21.20;36.30;;;;;;5095795;28;20480;-74
2022/02/26 10:51:20;;;;;;;1.67;0.80;;;21.20;36.30;;;;;;5116010;28;20063;-74
2022/02/26 10:53:46;;;;;;;0.82;0.75;;;21.20;36.30;;;;;;5116065;28;20051;-74
2022/02/26 10:56:13;;;;;;;1.75;1.00;;;21.20;36.30;;;;;;5115850;28;20051;-74
2022/02/26 10:58:41;;;;;;;1.80;0.90;;;21.20;36.30;;;;;;5096214;28;20462;-74
2022/02/26 11:01:12;;;;;;;1.00;0.90;;;21.20;36.30;;;;;;5115805;28;20479;-74
2022/02/26 11:03:38;;;;;;;1.58;0.80;;;21.20;36.30;;;;;;5115892;28;20093;-74
2022/02/26 11:06:06;;;;;;;1.08;0.80;;;21.20;36.30;;;;;;5097400;28;20456;-74
2022/02/26 11:08:33;;;;;;;1.35;0.90;;;21.20;36.30;;;;;;5096554;28;20101;-74
2022/02/26 11:11:02;;;;;;;1.85;0.80;;;21.20;36.30;;;;;;5116055;28;20514;-74
2022/02/26 11:13:27;;;;;;;1.30;0.70;;;21.20;36.30;;;;;;5115901;28;20426;-74
2022/02/26 11:15:57;;;;;;;2.03;1.13;;;21.20;36.30;;;;;;5115709;28;20051;-74
2022/02/26 11:18:29;;;;;;;2.00;0.80;;;21.20;36.30;;;;;;5115639;28;20062;-74
2022/02/26 11:20:56;;;;;;;1.95;0.90;;;21.20;36.30;;;;;;5115546;28;20403;-72
2022/02/26 11:23:24;;;;;;;1.13;0.80;;;21.20;36.30;;;;;;5115594;28;20039;-74
2022/02/26 11:25:51;;;;;;;0.95;0.65;;;21.30;36.30;;;;;;5115566;28;20066;-74
2022/02/26 11:28:18;;;;;;;1.65;0.80;;;21.20;36.30;;;;;;5115244;28;20120;-74
2022/02/26 11:30:54;;;;;;;1.05;0.90;;;21.20;36.30;;;;;;5115385;28;20040;-74
2022/02/26 11:33:20;;;;;;;1.35;0.90;;;21.20;36.30;;;;;;5115431;28;20541;-74
2022/02/26 11:35:54;;;;;;;1.55;0.88;;;21.20;36.30;;;;;;5115320;28;20047;-74
2022/02/26 11:38:22;;;;;;;1.42;0.75;;;21.20;36.30;;;;;;5080342;28;20051;-74
2022/02/26 11:41:12;;;;;;;1.17;0.85;;;21.20;36.30;;;;;;5115006;28;20066;-74
2022/02/26 11:43:39;;;;;;;1.33;0.80;;;21.20;36.30;;;;;;5115152;28;20491;-74
2022/02/26 11:46:33;;;;;;;1.13;0.85;;;21.20;36.40;;;;;;5115574;28;20075;-74
2022/02/26 11:49:11;;;;;;;1.63;0.80;;;21.20;36.40;;;;;;5115063;28;20131;-74
2022/02/26 11:51:36;;;;;;;1.55;0.93;;;21.20;36.40;;;;;;5115439;28;20054;-74
2022/02/26 11:54:07;;;;;;;1.95;0.88;;;21.20;36.40;;;;;;5115356;28;20051;-74
2022/02/26 11:56:56;;;;;;;1.03;0.70;;;21.10;36.40;;;;;;5096813;28;20059;-74
2022/02/26 11:59:38;;;;;;;1.38;0.90;;;21.10;36.40;;;;;;5114891;28;20409;-74
2022/02/26 12:02:10;;;;;;;1.48;1.00;;;21.10;36.40;;;;;;5114950;28;20040;-74
2022/02/26 12:04:58;;;;;;;0.98;0.70;;;21.10;36.50;;;;;;5114950;28;20146;-74
2022/02/26 12:07:32;;;;;;;0.88;0.70;;;21.10;36.50;;;;;;5096071;28;20058;-74
2022/02/26 12:10:11;;;;;;;1.48;0.80;;;21.10;36.60;;;;;;5114714;28;20391;-74
2022/02/26 12:12:44;;;;;;;1.05;0.70;;;21.00;36.60;;;;;;5114751;28;20083;-72
2022/02/26 12:15:19;;;;;;;1.65;0.85;;;21.00;36.60;;;;;;5114774;28;20060;-72
2022/02/26 12:17:46;;;;;;;1.52;0.90;;;20.90;36.60;;;;;;5114453;28;20405;-71
2022/02/26 12:20:18;;;;;;;1.40;0.85;;;20.90;36.70;;;;;;5114884;28;20142;-72
2022/02/26 12:22:46;;;;;;;1.58;0.90;;;20.90;36.70;;;;;;5114791;28;20047;-72
2022/02/26 12:25:13;;;;;;;1.38;0.77;;;20.90;36.70;;;;;;5113528;28;20159;-74
2022/02/26 12:27:39;;;;;;;2.15;0.88;;;20.90;36.80;;;;;;5114520;28;20455;-72
2022/02/26 12:30:14;;;;;;;1.60;0.75;;;20.90;36.80;;;;;;5096094;28;20052;-72
2022/02/26 12:33:03;;;;;;;1.58;1.00;;;20.90;36.80;;;;;;5096189;28;20039;-72
2022/02/26 12:35:37;;;;;;;1.25;0.82;;;20.90;36.80;;;;;;5114488;28;20056;-72
2022/02/26 12:38:24;;;;;;;0.70;0.70;;;20.90;36.80;;;;;;5114226;28;20048;-72
2022/02/26 12:40:49;;;;;;;1.27;0.80;;;20.80;36.80;;;;;;5113740;28;20043;-72
2022/02/26 12:43:15;;;;;;;2.17;0.93;;;20.90;36.80;;;;;;5113016;28;20502;-72
2022/02/26 12:45:43;;;;;;;1.55;0.90;;;20.80;36.80;;;;;;5114311;28;20143;-72
2022/02/26 12:48:10;;;;;;;1.90;1.00;;;20.90;36.90;;;;;;5113040;28;20051;-72